sensor_id;sensor_type;location;lat;lon;timestamp;pressure;altitude;pressure_sealevel;temperature;humidity
13486;BME280;6815;59.336;17.998;2022-09-09T00:02:20;77456.94;;;-145.37;56.78
13486;BME280;6815;59.336;17.998;2022-09-09T00:04:57;77450.91;;;-145.37;56.43
13486;BME280;6815;59.336;17.998;2022-09-09T00:07:39;77454.94;;;-145.37;56.39
13486;BME280;6815;59.336;17.998;2022-09-09T00:21:13;77428.78;;;-145.37;55.59
13486;BME280;6815;59.336;17.998;2022-09-09T00:23:47;77422.75;;;-145.37;55.46
13486;BME280;6815;59.336;17.998;2022-09-09T00:31:41;77434.81;;;-145.37;53.37
13486;BME280;6815;59.336;17.998;2022-09-09T00:36:37;77414.72;;;-145.37;52.47
13486;BME280;6815;59.336;17.998;2022-09-09T00:39:04;77402.66;;;-145.37;52.17
13486;BME280;6815;59.336;17.998;2022-09-09T00:44:33;77394.59;;;-145.37;51.71
13486;BME280;6815;59.336;17.998;2022-09-09T00:52:39;77368.47;;;-145.37;51.26
13486;BME280;6815;59.336;17.998;2022-09-09T00:57:40;77366.44;;;-145.37;51.01
13486;BME280;6815;59.336;17.998;2022-09-09T01:00:27;77362.44;;;-145.37;50.97
13486;BME280;6815;59.336;17.998;2022-09-09T01:05:39;77346.34;;;-145.37;50.90
13486;BME280;6815;59.336;17.998;2022-09-09T01:11:47;77344.34;;;-145.37;51.01
13486;BME280;6815;59.336;17.998;2022-09-09T01:16:56;77342.31;;;-145.37;51.26
13486;BME280;6815;59.336;17.998;2022-09-09T01:19:37;77338.28;;;-145.37;51.48
13486;BME280;6815;59.336;17.998;2022-09-09T01:22:30;77338.28;;;-145.37;51.56
13486;BME280;6815;59.336;17.998;2022-09-09T01:27:32;77338.28;;;-145.37;51.81
13486;BME280;6815;59.336;17.998;2022-09-09T01:29:59;77334.28;;;-145.37;51.92
13486;BME280;6815;59.336;17.998;2022-09-09T01:32:53;77324.22;;;-145.37;51.88
13486;BME280;6815;59.336;17.998;2022-09-09T01:37:56;77336.28;;;-145.37;52.31
13486;BME280;6815;59.336;17.998;2022-09-09T01:40:23;77324.22;;;-145.37;52.09
13486;BME280;6815;59.336;17.998;2022-09-09T01:42:48;77344.34;;;-145.37;52.44
13486;BME280;6815;59.336;17.998;2022-09-09T01:45:14;77350.38;;;-145.37;52.62
13486;BME280;6815;59.336;17.998;2022-09-09T01:47:40;77338.28;;;-145.37;52.67
13486;BME280;6815;59.336;17.998;2022-09-09T01:50:08;77330.25;;;-145.37;52.71
13486;BME280;6815;59.336;17.998;2022-09-09T01:52:36;77332.25;;;-145.37;52.84
13486;BME280;6815;59.336;17.998;2022-09-09T01:55:03;77326.22;;;-145.37;52.80
13486;BME280;6815;59.336;17.998;2022-09-09T02:00:23;77314.16;;;-145.37;53.11
13486;BME280;6815;59.336;17.998;2022-09-09T02:05:41;77308.13;;;-145.37;53.73
13486;BME280;6815;59.336;17.998;2022-09-09T02:08:20;77296.06;;;-145.37;53.74
13486;BME280;6815;59.336;17.998;2022-09-09T02:13:37;77304.13;;;-145.37;54.45
13486;BME280;6815;59.336;17.998;2022-09-09T02:18:34;77290.03;;;-145.37;54.48
13486;BME280;6815;59.336;17.998;2022-09-09T02:21:02;77284.00;;;-145.37;54.74
13486;BME280;6815;59.336;17.998;2022-09-09T02:23:28;77277.97;;;-145.37;54.91
13486;BME280;6815;59.336;17.998;2022-09-09T02:25:55;77279.97;;;-145.37;55.20
13486;BME280;6815;59.336;17.998;2022-09-09T02:28:25;77267.91;;;-145.37;55.20
13486;BME280;6815;59.336;17.998;2022-09-09T02:30:53;77273.94;;;-145.37;55.13
13486;BME280;6815;59.336;17.998;2022-09-09T02:33:23;77271.94;;;-145.37;55.37
13486;BME280;6815;59.336;17.998;2022-09-09T02:35:51;77271.94;;;-145.37;55.35
13486;BME280;6815;59.336;17.998;2022-09-09T02:38:17;77265.91;;;-145.37;55.52
13486;BME280;6815;59.336;17.998;2022-09-09T02:40:43;77263.91;;;-145.37;55.65
13486;BME280;6815;59.336;17.998;2022-09-09T02:43:08;77265.91;;;-145.37;55.78
13486;BME280;6815;59.336;17.998;2022-09-09T02:45:46;77263.91;;;-145.37;56.13
13486;BME280;6815;59.336;17.998;2022-09-09T02:51:38;77253.84;;;-145.37;56.08
13486;BME280;6815;59.336;17.998;2022-09-09T02:54:28;77259.88;;;-145.37;56.44
13486;BME280;6815;59.336;17.998;2022-09-09T02:57:11;77253.84;;;-145.37;56.54
13486;BME280;6815;59.336;17.998;2022-09-09T02:59:37;77257.84;;;-145.37;56.48
13486;BME280;6815;59.336;17.998;2022-09-09T03:02:03;77249.81;;;-145.37;56.37
13486;BME280;6815;59.336;17.998;2022-09-09T03:04:29;77247.81;;;-145.37;56.55
13486;BME280;6815;59.336;17.998;2022-09-09T03:06:56;77241.78;;;-145.37;56.53
13486;BME280;6815;59.336;17.998;2022-09-09T03:09:24;77239.75;;;-145.37;56.36
13486;BME280;6815;59.336;17.998;2022-09-09T03:11:49;77237.75;;;-145.37;56.50
13486;BME280;6815;59.336;17.998;2022-09-09T03:14:15;77237.75;;;-145.37;56.64
13486;BME280;6815;59.336;17.998;2022-09-09T03:16:41;77239.75;;;-145.37;56.58
13486;BME280;6815;59.336;17.998;2022-09-09T03:19:08;77231.72;;;-145.37;56.58
13486;BME280;6815;59.336;17.998;2022-09-09T03:21:33;77237.75;;;-145.37;56.85
13486;BME280;6815;59.336;17.998;2022-09-09T03:23:59;77231.72;;;-145.37;56.53
13486;BME280;6815;59.336;17.998;2022-09-09T03:26:26;77225.69;;;-145.37;56.64
13486;BME280;6815;59.336;17.998;2022-09-09T03:28:52;77219.66;;;-145.37;56.54
13486;BME280;6815;59.336;17.998;2022-09-09T03:31:19;77227.69;;;-145.37;56.90
13486;BME280;6815;59.336;17.998;2022-09-09T03:33:44;77229.72;;;-145.37;56.75
13486;BME280;6815;59.336;17.998;2022-09-09T03:36:17;77223.69;;;-145.37;56.64
13486;BME280;6815;59.336;17.998;2022-09-09T03:38:42;77223.69;;;-145.37;56.72
13486;BME280;6815;59.336;17.998;2022-09-09T03:41:08;77223.69;;;-145.37;56.65
13486;BME280;6815;59.336;17.998;2022-09-09T03:43:34;77219.66;;;-145.37;56.72
13486;BME280;6815;59.336;17.998;2022-09-09T03:46:00;77221.66;;;-145.37;56.74
13486;BME280;6815;59.336;17.998;2022-09-09T03:48:26;77217.63;;;-145.37;56.69
13486;BME280;6815;59.336;17.998;2022-09-09T03:50:54;77213.63;;;-145.37;56.66
13486;BME280;6815;59.336;17.998;2022-09-09T03:53:23;77215.63;;;-145.37;56.81
13486;BME280;6815;59.336;17.998;2022-09-09T03:55:51;77209.59;;;-145.37;56.64
13486;BME280;6815;59.336;17.998;2022-09-09T03:58:23;77213.63;;;-145.37;56.84
13486;BME280;6815;59.336;17.998;2022-09-09T04:00:57;77209.59;;;-145.37;56.63
13486;BME280;6815;59.336;17.998;2022-09-09T04:03:24;77215.63;;;-145.37;56.77
13486;BME280;6815;59.336;17.998;2022-09-09T04:05:53;77201.56;;;-145.37;57.00
13486;BME280;6815;59.336;17.998;2022-09-09T04:08:20;77199.53;;;-145.37;56.83
13486;BME280;6815;59.336;17.998;2022-09-09T04:10:47;77191.50;;;-145.37;56.90
13486;BME280;6815;59.336;17.998;2022-09-09T04:13:13;77197.53;;;-145.37;57.06
13486;BME280;6815;59.336;17.998;2022-09-09T04:15:41;77197.53;;;-145.37;57.28
13486;BME280;6815;59.336;17.998;2022-09-09T04:18:07;77191.50;;;-145.37;56.90
13486;BME280;6815;59.336;17.998;2022-09-09T04:20:33;77193.50;;;-145.37;57.02
13486;BME280;6815;59.336;17.998;2022-09-09T04:22:58;77193.50;;;-145.37;56.89
13486;BME280;6815;59.336;17.998;2022-09-09T04:25:24;77189.50;;;-145.37;56.98
13486;BME280;6815;59.336;17.998;2022-09-09T04:27:56;77193.50;;;-145.37;56.78
13486;BME280;6815;59.336;17.998;2022-09-09T04:30:22;77193.50;;;-145.37;56.96
13486;BME280;6815;59.336;17.998;2022-09-09T04:32:48;77197.53;;;-145.37;57.17
13486;BME280;6815;59.336;17.998;2022-09-09T04:35:13;77195.53;;;-145.37;57.01
13486;BME280;6815;59.336;17.998;2022-09-09T04:37:39;77191.50;;;-145.37;57.14
13486;BME280;6815;59.336;17.998;2022-09-09T04:40:05;77191.50;;;-145.37;57.18
13486;BME280;6815;59.336;17.998;2022-09-09T04:42:35;77189.50;;;-145.37;57.09
13486;BME280;6815;59.336;17.998;2022-09-09T04:45:00;77191.50;;;-145.37;57.38
13486;BME280;6815;59.336;17.998;2022-09-09T04:47:26;77185.47;;;-145.37;57.15
13486;BME280;6815;59.336;17.998;2022-09-09T04:49:52;77185.47;;;-145.37;57.23
13486;BME280;6815;59.336;17.998;2022-09-09T04:52:20;77177.41;;;-145.37;57.25
13486;BME280;6815;59.336;17.998;2022-09-09T04:54:45;77179.44;;;-145.37;56.96
13486;BME280;6815;59.336;17.998;2022-09-09T04:57:11;77179.44;;;-145.37;56.82
13486;BME280;6815;59.336;17.998;2022-09-09T04:59:37;77175.41;;;-145.37;56.44
13486;BME280;6815;59.336;17.998;2022-09-09T05:02:04;77181.44;;;-145.37;56.18
13486;BME280;6815;59.336;17.998;2022-09-09T05:04:30;77179.44;;;-145.37;55.33
13486;BME280;6815;59.336;17.998;2022-09-09T05:06:56;77177.41;;;-145.37;54.43
13486;BME280;6815;59.336;17.998;2022-09-09T05:09:22;77169.38;;;-145.37;53.53
13486;BME280;6815;59.336;17.998;2022-09-09T05:11:47;77175.41;;;-145.37;53.07
13486;BME280;6815;59.336;17.998;2022-09-09T05:14:14;77165.34;;;-145.37;51.68
13486;BME280;6815;59.336;17.998;2022-09-09T05:16:40;77167.38;;;-145.37;50.98
13486;BME280;6815;59.336;17.998;2022-09-09T05:19:07;77159.31;;;-145.37;50.73
13486;BME280;6815;59.336;17.998;2022-09-09T05:21:33;77155.31;;;-145.37;50.61
13486;BME280;6815;59.336;17.998;2022-09-09T05:23:59;77151.28;;;-145.37;50.11
13486;BME280;6815;59.336;17.998;2022-09-09T05:26:26;77155.31;;;-145.37;49.60
13486;BME280;6815;59.336;17.998;2022-09-09T05:28:51;77145.25;;;-145.37;49.06
13486;BME280;6815;59.336;17.998;2022-09-09T05:31:19;77147.25;;;-145.37;48.90
13486;BME280;6815;59.336;17.998;2022-09-09T05:33:45;77143.25;;;-145.37;48.29
13486;BME280;6815;59.336;17.998;2022-09-09T05:36:21;77137.19;;;-145.37;47.96
13486;BME280;6815;59.336;17.998;2022-09-09T05:38:48;77137.19;;;-145.37;48.04
13486;BME280;6815;59.336;17.998;2022-09-09T05:41:14;77145.25;;;-145.37;47.62
13486;BME280;6815;59.336;17.998;2022-09-09T05:43:43;77135.19;;;-145.37;47.64
13486;BME280;6815;59.336;17.998;2022-09-09T05:46:14;77133.19;;;-145.37;47.59
13486;BME280;6815;59.336;17.998;2022-09-09T05:48:44;77131.16;;;-145.37;47.13
13486;BME280;6815;59.336;17.998;2022-09-09T05:51:19;77129.16;;;-145.37;46.78
13486;BME280;6815;59.336;17.998;2022-09-09T05:53:52;77125.13;;;-145.37;46.64
13486;BME280;6815;59.336;17.998;2022-09-09T05:56:19;77123.13;;;-145.37;46.58
13486;BME280;6815;59.336;17.998;2022-09-09T05:58:45;77111.06;;;-145.37;46.76
13486;BME280;6815;59.336;17.998;2022-09-09T06:01:23;77109.06;;;-145.37;46.55
13486;BME280;6815;59.336;17.998;2022-09-09T06:03:50;77107.03;;;-145.37;46.02
13486;BME280;6815;59.336;17.998;2022-09-09T06:06:18;77109.06;;;-145.37;45.91
13486;BME280;6815;59.336;17.998;2022-09-09T06:08:46;77101.00;;;-145.37;45.59
13486;BME280;6815;59.336;17.998;2022-09-09T06:11:17;77099.00;;;-145.37;45.70
13486;BME280;6815;59.336;17.998;2022-09-09T06:13:43;77099.00;;;-145.37;45.27
13486;BME280;6815;59.336;17.998;2022-09-09T06:16:14;77105.03;;;-145.37;44.85
13486;BME280;6815;59.336;17.998;2022-09-09T06:18:40;77094.97;;;-145.37;45.00
13486;BME280;6815;59.336;17.998;2022-09-09T06:21:10;77101.00;;;-145.37;44.79
13486;BME280;6815;59.336;17.998;2022-09-09T06:23:39;77086.94;;;-145.37;44.76
13486;BME280;6815;59.336;17.998;2022-09-09T06:26:15;77080.91;;;-145.37;44.62
13486;BME280;6815;59.336;17.998;2022-09-09T06:28:44;77080.91;;;-145.37;44.43
13486;BME280;6815;59.336;17.998;2022-09-09T06:31:12;77070.84;;;-145.37;44.49
13486;BME280;6815;59.336;17.998;2022-09-09T06:33:41;77062.81;;;-145.37;44.06
13486;BME280;6815;59.336;17.998;2022-09-09T06:36:13;77084.91;;;-145.37;44.06
13486;BME280;6815;59.336;17.998;2022-09-09T06:38:40;77064.81;;;-145.37;44.06
13486;BME280;6815;59.336;17.998;2022-09-09T06:41:10;77072.84;;;-145.37;44.34
13486;BME280;6815;59.336;17.998;2022-09-09T06:43:37;77068.84;;;-145.37;44.66
13486;BME280;6815;59.336;17.998;2022-09-09T06:46:09;77056.78;;;-145.37;44.77
13486;BME280;6815;59.336;17.998;2022-09-09T06:48:35;77064.81;;;-145.37;44.75
13486;BME280;6815;59.336;17.998;2022-09-09T06:51:07;77042.69;;;-145.37;43.79
13486;BME280;6815;59.336;17.998;2022-09-09T06:53:34;77048.72;;;-145.37;43.71
13486;BME280;6815;59.336;17.998;2022-09-09T06:56:33;77040.69;;;-145.37;43.33
13486;BME280;6815;59.336;17.998;2022-09-09T06:59:02;77040.69;;;-145.37;43.47
13486;BME280;6815;59.336;17.998;2022-09-09T07:01:33;77036.66;;;-145.37;43.24
13486;BME280;6815;59.336;17.998;2022-09-09T07:03:59;77032.63;;;-145.37;42.84
13486;BME280;6815;59.336;17.998;2022-09-09T07:06:26;77032.63;;;-145.37;42.94
13486;BME280;6815;59.336;17.998;2022-09-09T07:09:00;77050.75;;;-145.37;43.54
13486;BME280;6815;59.336;17.998;2022-09-09T07:11:48;77034.66;;;-145.37;43.25
13486;BME280;6815;59.336;17.998;2022-09-09T07:14:14;77024.59;;;-145.37;42.62
13486;BME280;6815;59.336;17.998;2022-09-09T07:16:41;77044.72;;;-145.37;41.91
13486;BME280;6815;59.336;17.998;2022-09-09T07:19:09;77038.66;;;-145.37;41.73
13486;BME280;6815;59.336;17.998;2022-09-09T07:21:35;77016.56;;;-145.37;41.61
13486;BME280;6815;59.336;17.998;2022-09-09T07:24:01;77016.56;;;-145.37;41.41
13486;BME280;6815;59.336;17.998;2022-09-09T07:26:29;77026.59;;;-145.37;40.96
13486;BME280;6815;59.336;17.998;2022-09-09T07:28:55;77030.63;;;-145.37;40.90
13486;BME280;6815;59.336;17.998;2022-09-09T07:31:27;77018.56;;;-145.37;40.63
13486;BME280;6815;59.336;17.998;2022-09-09T07:33:53;77012.53;;;-145.37;40.92
13486;BME280;6815;59.336;17.998;2022-09-09T07:36:25;76998.47;;;-145.37;40.86
13486;BME280;6815;59.336;17.998;2022-09-09T07:38:54;76980.34;;;-145.37;40.63
13486;BME280;6815;59.336;17.998;2022-09-09T07:41:23;76976.34;;;-145.37;40.42
13486;BME280;6815;59.336;17.998;2022-09-09T07:43:50;76992.41;;;-145.37;40.45
13486;BME280;6815;59.336;17.998;2022-09-09T07:46:18;76978.34;;;-145.37;40.49
13486;BME280;6815;59.336;17.998;2022-09-09T07:48:49;76966.28;;;-145.37;40.42
13486;BME280;6815;59.336;17.998;2022-09-09T07:51:24;76988.41;;;-145.37;40.40
13486;BME280;6815;59.336;17.998;2022-09-09T07:53:59;77022.59;;;-145.37;41.48
13486;BME280;6815;59.336;17.998;2022-09-09T07:56:26;77036.66;;;-145.37;42.52
13486;BME280;6815;59.336;17.998;2022-09-09T07:58:54;77056.78;;;-145.37;43.22
13486;BME280;6815;59.336;17.998;2022-09-09T08:01:24;77050.75;;;-145.37;43.13
13486;BME280;6815;59.336;17.998;2022-09-09T08:03:59;77010.53;;;-145.37;42.64
13486;BME280;6815;59.336;17.998;2022-09-09T08:06:31;76988.41;;;-145.37;42.39
13486;BME280;6815;59.336;17.998;2022-09-09T08:08:58;76992.41;;;-145.37;41.56
13486;BME280;6815;59.336;17.998;2022-09-09T08:11:25;77018.56;;;-145.37;41.16
13486;BME280;6815;59.336;17.998;2022-09-09T08:13:52;77008.50;;;-145.37;41.33
13486;BME280;6815;59.336;17.998;2022-09-09T08:16:21;77030.63;;;-145.37;42.06
13486;BME280;6815;59.336;17.998;2022-09-09T08:18:51;77034.66;;;-145.37;42.22
13486;BME280;6815;59.336;17.998;2022-09-09T08:21:20;77004.50;;;-145.37;42.12
13486;BME280;6815;59.336;17.998;2022-09-09T08:23:47;76992.41;;;-145.37;41.65
13486;BME280;6815;59.336;17.998;2022-09-09T08:26:16;76998.47;;;-145.37;41.58
13486;BME280;6815;59.336;17.998;2022-09-09T08:28:42;77020.56;;;-145.37;41.93
13486;BME280;6815;59.336;17.998;2022-09-09T08:31:13;77018.56;;;-145.37;42.06
13486;BME280;6815;59.336;17.998;2022-09-09T08:33:40;77004.50;;;-145.37;42.28
13486;BME280;6815;59.336;17.998;2022-09-09T08:36:09;77004.50;;;-145.37;42.42
13486;BME280;6815;59.336;17.998;2022-09-09T08:38:35;77016.56;;;-145.37;42.26
13486;BME280;6815;59.336;17.998;2022-09-09T08:43:43;77020.56;;;-145.37;42.10
13486;BME280;6815;59.336;17.998;2022-09-09T08:46:21;77052.75;;;-145.37;42.35
13486;BME280;6815;59.336;17.998;2022-09-09T08:48:57;77036.66;;;-145.37;42.30
13486;BME280;6815;59.336;17.998;2022-09-09T08:51:29;77026.59;;;-145.37;41.98
13486;BME280;6815;59.336;17.998;2022-09-09T08:53:58;77040.69;;;-145.37;42.38
13486;BME280;6815;59.336;17.998;2022-09-09T08:56:27;77030.63;;;-145.37;42.74
13486;BME280;6815;59.336;17.998;2022-09-09T08:58:55;77032.63;;;-145.37;43.68
13486;BME280;6815;59.336;17.998;2022-09-09T09:07:21;77036.66;;;-145.37;43.82
13486;BME280;6815;59.336;17.998;2022-09-09T09:10:11;77028.63;;;-145.37;43.71
13486;BME280;6815;59.336;17.998;2022-09-09T09:12:43;77014.53;;;-145.37;43.73
13486;BME280;6815;59.336;17.998;2022-09-09T09:15:31;77008.50;;;-145.37;43.10
13486;BME280;6815;59.336;17.998;2022-09-09T09:17:59;77034.66;;;-145.37;42.45
13486;BME280;6815;59.336;17.998;2022-09-09T09:20:47;77060.78;;;-145.37;43.44
13486;BME280;6815;59.336;17.998;2022-09-09T09:23:35;77060.78;;;-145.37;43.44
13486;BME280;6815;59.336;17.998;2022-09-09T09:26:07;77052.75;;;-145.37;43.51
13486;BME280;6815;59.336;17.998;2022-09-09T09:28:35;77044.72;;;-145.37;43.60
13486;BME280;6815;59.336;17.998;2022-09-09T09:31:12;77048.72;;;-145.37;44.04
13486;BME280;6815;59.336;17.998;2022-09-09T09:33:50;77040.69;;;-145.37;44.51
13486;BME280;6815;59.336;17.998;2022-09-09T09:36:18;77036.66;;;-145.37;44.26
13486;BME280;6815;59.336;17.998;2022-09-09T09:38:57;77018.56;;;-145.37;43.80
13486;BME280;6815;59.336;17.998;2022-09-09T09:41:34;77034.66;;;-145.37;43.95
13486;BME280;6815;59.336;17.998;2022-09-09T09:44:02;77054.75;;;-145.37;44.13
13486;BME280;6815;59.336;17.998;2022-09-09T09:46:27;77056.78;;;-145.37;44.61
13486;BME280;6815;59.336;17.998;2022-09-09T09:49:01;77064.81;;;-145.37;44.68
13486;BME280;6815;59.336;17.998;2022-09-09T09:51:29;77036.66;;;-145.37;44.53
13486;BME280;6815;59.336;17.998;2022-09-09T09:54:22;77022.59;;;-145.37;44.44
13486;BME280;6815;59.336;17.998;2022-09-09T09:56:52;77032.63;;;-145.37;44.36
13486;BME280;6815;59.336;17.998;2022-09-09T09:59:22;77016.56;;;-145.37;43.70
13486;BME280;6815;59.336;17.998;2022-09-09T10:01:48;77036.66;;;-145.37;43.25
13486;BME280;6815;59.336;17.998;2022-09-09T10:04:19;77022.59;;;-145.37;43.00
13486;BME280;6815;59.336;17.998;2022-09-09T10:06:46;76990.41;;;-145.37;43.05
13486;BME280;6815;59.336;17.998;2022-09-09T10:09:28;76990.41;;;-145.37;43.39
13486;BME280;6815;59.336;17.998;2022-09-09T10:33:51;77048.72;;;-145.37;43.02
13486;BME280;6815;59.336;17.998;2022-09-09T10:36:25;77040.69;;;-145.37;43.11
13486;BME280;6815;59.336;17.998;2022-09-09T10:38:59;77018.56;;;-145.37;43.04
13486;BME280;6815;59.336;17.998;2022-09-09T10:46:51;77006.50;;;-145.37;42.53
13486;BME280;6815;59.336;17.998;2022-09-09T10:55:20;77004.50;;;-145.37;42.98
13486;BME280;6815;59.336;17.998;2022-09-09T10:57:52;77002.47;;;-145.37;43.86
13486;BME280;6815;59.336;17.998;2022-09-09T11:00:24;77018.56;;;-145.37;44.29
13486;BME280;6815;59.336;17.998;2022-09-09T11:02:56;77016.56;;;-145.37;44.16
13486;BME280;6815;59.336;17.998;2022-09-09T11:05:43;77008.50;;;-145.37;44.00
13486;BME280;6815;59.336;17.998;2022-09-09T11:08:14;77016.56;;;-145.37;43.73
13486;BME280;6815;59.336;17.998;2022-09-09T11:10:50;77048.72;;;-145.37;43.99
13486;BME280;6815;59.336;17.998;2022-09-09T11:13:24;77028.63;;;-145.37;43.90
13486;BME280;6815;59.336;17.998;2022-09-09T11:15:59;77028.63;;;-145.37;43.86
13486;BME280;6815;59.336;17.998;2022-09-09T11:18:28;77046.72;;;-145.37;43.39
13486;BME280;6815;59.336;17.998;2022-09-09T11:20:59;77006.50;;;-145.37;43.51
13486;BME280;6815;59.336;17.998;2022-09-09T11:23:39;76980.34;;;-145.37;42.73
13486;BME280;6815;59.336;17.998;2022-09-09T11:26:08;76980.34;;;-145.37;42.81
13486;BME280;6815;59.336;17.998;2022-09-09T11:34:19;76998.47;;;-145.37;43.88
13486;BME280;6815;59.336;17.998;2022-09-09T11:37:16;76988.41;;;-145.37;43.84
13486;BME280;6815;59.336;17.998;2022-09-09T11:40:19;77002.47;;;-145.37;44.28
13486;BME280;6815;59.336;17.998;2022-09-09T11:42:47;76994.44;;;-145.37;44.54
13486;BME280;6815;59.336;17.998;2022-09-09T11:45:24;76986.38;;;-145.37;44.66
13486;BME280;6815;59.336;17.998;2022-09-09T11:47:54;76982.38;;;-145.37;44.74
13486;BME280;6815;59.336;17.998;2022-09-09T11:52:48;76966.28;;;-145.37;44.75
13486;BME280;6815;59.336;17.998;2022-09-09T11:55:33;76970.31;;;-145.37;44.81
13486;BME280;6815;59.336;17.998;2022-09-09T11:58:03;76978.34;;;-145.37;44.46
13486;BME280;6815;59.336;17.998;2022-09-09T12:02:58;76960.25;;;-145.37;44.22
13486;BME280;6815;59.336;17.998;2022-09-09T12:05:36;76976.34;;;-145.37;44.67
13486;BME280;6815;59.336;17.998;2022-09-09T12:08:04;76990.41;;;-145.37;44.87
13486;BME280;6815;59.336;17.998;2022-09-09T12:10:33;76996.44;;;-145.37;45.44
13486;BME280;6815;59.336;17.998;2022-09-09T12:13:20;76970.31;;;-145.37;45.35
13486;BME280;6815;59.336;17.998;2022-09-09T12:18:26;76962.25;;;-145.37;45.49
13486;BME280;6815;59.336;17.998;2022-09-09T12:21:25;76948.19;;;-145.37;45.39
13486;BME280;6815;59.336;17.998;2022-09-09T12:23:59;76946.19;;;-145.37;44.95
13486;BME280;6815;59.336;17.998;2022-09-09T12:29:12;76958.25;;;-145.37;45.36
13486;BME280;6815;59.336;17.998;2022-09-09T12:31:48;76952.22;;;-145.37;45.36
13486;BME280;6815;59.336;17.998;2022-09-09T12:34:24;76924.06;;;-145.37;45.28
13486;BME280;6815;59.336;17.998;2022-09-09T12:36:58;76924.06;;;-145.37;45.49
13486;BME280;6815;59.336;17.998;2022-09-09T12:42:19;76960.25;;;-145.37;45.71
13486;BME280;6815;59.336;17.998;2022-09-09T12:44:57;76944.16;;;-145.37;45.42
13486;BME280;6815;59.336;17.998;2022-09-09T12:50:01;76952.22;;;-145.37;45.03
13486;BME280;6815;59.336;17.998;2022-09-09T12:52:30;76930.09;;;-145.37;44.89
13486;BME280;6815;59.336;17.998;2022-09-09T12:54:58;76914.00;;;-145.37;44.88
13486;BME280;6815;59.336;17.998;2022-09-09T12:57:25;76897.91;;;-145.37;44.91
13486;BME280;6815;59.336;17.998;2022-09-09T12:59:51;76899.94;;;-145.37;45.25
13486;BME280;6815;59.336;17.998;2022-09-09T13:02:21;76912.00;;;-145.37;45.09
13486;BME280;6815;59.336;17.998;2022-09-09T13:04:48;76922.03;;;-145.37;45.02
13486;BME280;6815;59.336;17.998;2022-09-09T13:07:16;76934.13;;;-145.37;45.06
13486;BME280;6815;59.336;17.998;2022-09-09T13:09:46;76922.03;;;-145.37;45.06
13486;BME280;6815;59.336;17.998;2022-09-09T13:12:18;76924.06;;;-145.37;45.07
13486;BME280;6815;59.336;17.998;2022-09-09T13:14:47;76926.06;;;-145.37;45.18
13486;BME280;6815;59.336;17.998;2022-09-09T13:17:25;76907.97;;;-145.37;44.75
13486;BME280;6815;59.336;17.998;2022-09-09T13:19:52;76901.94;;;-145.37;45.14
13486;BME280;6815;59.336;17.998;2022-09-09T13:22:36;76887.88;;;-145.37;44.95
13486;BME280;6815;59.336;17.998;2022-09-09T13:27:36;76889.88;;;-145.37;44.06
13486;BME280;6815;59.336;17.998;2022-09-09T13:30:32;76901.94;;;-145.37;44.58
13486;BME280;6815;59.336;17.998;2022-09-09T13:38:35;76928.06;;;-145.37;45.20
13486;BME280;6815;59.336;17.998;2022-09-09T13:41:03;76936.13;;;-145.37;45.12
13486;BME280;6815;59.336;17.998;2022-09-09T13:43:46;76942.16;;;-145.37;45.32
13486;BME280;6815;59.336;17.998;2022-09-09T13:46:25;76934.13;;;-145.37;45.20
13486;BME280;6815;59.336;17.998;2022-09-09T13:48:56;76914.00;;;-145.37;45.33
13486;BME280;6815;59.336;17.998;2022-09-09T13:51:48;76901.94;;;-145.37;44.82
13486;BME280;6815;59.336;17.998;2022-09-09T13:54:17;76889.88;;;-145.37;44.91
13486;BME280;6815;59.336;17.998;2022-09-09T13:56:43;76895.91;;;-145.37;45.11
13486;BME280;6815;59.336;17.998;2022-09-09T13:59:12;76914.00;;;-145.37;45.21
13486;BME280;6815;59.336;17.998;2022-09-09T14:01:38;76916.00;;;-145.37;45.25
13486;BME280;6815;59.336;17.998;2022-09-09T14:04:04;76903.94;;;-145.37;45.16
13486;BME280;6815;59.336;17.998;2022-09-09T14:06:31;76907.97;;;-145.37;44.99
13486;BME280;6815;59.336;17.998;2022-09-09T14:08:57;76903.94;;;-145.37;44.90
13486;BME280;6815;59.336;17.998;2022-09-09T14:11:23;76905.97;;;-145.37;44.93
13486;BME280;6815;59.336;17.998;2022-09-09T14:13:48;76905.97;;;-145.37;44.61
13486;BME280;6815;59.336;17.998;2022-09-09T14:16:18;76905.97;;;-145.37;44.67
13486;BME280;6815;59.336;17.998;2022-09-09T14:18:47;76905.97;;;-145.37;44.55
13486;BME280;6815;59.336;17.998;2022-09-09T14:21:12;76914.00;;;-145.37;44.59
13486;BME280;6815;59.336;17.998;2022-09-09T14:23:38;76916.00;;;-145.37;44.43
13486;BME280;6815;59.336;17.998;2022-09-09T14:26:07;76930.09;;;-145.37;44.59
13486;BME280;6815;59.336;17.998;2022-09-09T14:28:34;76932.09;;;-145.37;44.42
13486;BME280;6815;59.336;17.998;2022-09-09T14:31:01;76936.13;;;-145.37;44.80
13486;BME280;6815;59.336;17.998;2022-09-09T14:33:27;76924.06;;;-145.37;44.63
13486;BME280;6815;59.336;17.998;2022-09-09T14:36:02;76922.03;;;-145.37;44.74
13486;BME280;6815;59.336;17.998;2022-09-09T14:38:30;76922.03;;;-145.37;44.58
13486;BME280;6815;59.336;17.998;2022-09-09T14:40:56;76920.03;;;-145.37;44.51
13486;BME280;6815;59.336;17.998;2022-09-09T14:43:22;76934.13;;;-145.37;44.82
13486;BME280;6815;59.336;17.998;2022-09-09T14:45:47;76934.13;;;-145.37;45.07
13486;BME280;6815;59.336;17.998;2022-09-09T14:48:16;76946.19;;;-145.37;45.26
13486;BME280;6815;59.336;17.998;2022-09-09T14:50:42;76938.13;;;-145.37;45.39
13486;BME280;6815;59.336;17.998;2022-09-09T14:53:08;76940.16;;;-145.37;45.28
13486;BME280;6815;59.336;17.998;2022-09-09T14:55:35;76936.13;;;-145.37;45.52
13486;BME280;6815;59.336;17.998;2022-09-09T14:58:00;76930.09;;;-145.37;45.11
13486;BME280;6815;59.336;17.998;2022-09-09T15:00:26;76932.09;;;-145.37;45.36
13486;BME280;6815;59.336;17.998;2022-09-09T15:02:53;76932.09;;;-145.37;45.40
13486;BME280;6815;59.336;17.998;2022-09-09T15:05:18;76940.16;;;-145.37;45.15
13486;BME280;6815;59.336;17.998;2022-09-09T15:07:44;76952.22;;;-145.37;45.55